sensor_id;sensor_type;location;lat;lon;timestamp;P1;durP1;ratioP1;P2;durP2;ratioP2
35188;SDS011;21762;54.480;18.556;2023-07-29T00:02:40;13.35;;;9.15;;
35188;SDS011;21762;54.480;18.556;2023-07-29T00:05:12;15.13;;;9.05;;
35188;SDS011;21762;54.480;18.556;2023-07-29T00:07:44;12.95;;;9.15;;
35188;SDS011;21762;54.480;18.556;2023-07-29T00:10:15;17.55;;;9.43;;
35188;SDS011;21762;54.480;18.556;2023-07-29T00:12:46;15.73;;;8.40;;
35188;SDS011;21762;54.480;18.556;2023-07-29T00:15:15;11.30;;;7.82;;
35188;SDS011;21762;54.480;18.556;2023-07-29T00:17:46;15.73;;;9.85;;
35188;SDS011;21762;54.480;18.556;2023-07-29T00:20:16;12.60;;;9.88;;
35188;SDS011;21762;54.480;18.556;2023-07-29T00:22:49;14.43;;;9.43;;
35188;SDS011;21762;54.480;18.556;2023-07-29T00:25:24;14.13;;;9.90;;
35188;SDS011;21762;54.480;18.556;2023-07-29T00:27:55;13.65;;;9.10;;
35188;SDS011;21762;54.480;18.556;2023-07-29T00:30:27;17.02;;;10.30;;
35188;SDS011;21762;54.480;18.556;2023-07-29T00:32:57;14.98;;;9.85;;
35188;SDS011;21762;54.480;18.556;2023-07-29T00:35:28;13.20;;;9.40;;
35188;SDS011;21762;54.480;18.556;2023-07-29T00:38:03;15.02;;;8.20;;
35188;SDS011;21762;54.480;18.556;2023-07-29T00:40:35;16.63;;;9.80;;
35188;SDS011;21762;54.480;18.556;2023-07-29T00:43:08;11.32;;;8.85;;
35188;SDS011;21762;54.480;18.556;2023-07-29T00:45:47;16.50;;;8.95;;
35188;SDS011;21762;54.480;18.556;2023-07-29T00:48:18;11.63;;;8.73;;
35188;SDS011;21762;54.480;18.556;2023-07-29T00:50:48;15.30;;;9.10;;
35188;SDS011;21762;54.480;18.556;2023-07-29T00:53:30;12.20;;;8.00;;
35188;SDS011;21762;54.480;18.556;2023-07-29T00:56:13;9.40;;;7.70;;
35188;SDS011;21762;54.480;18.556;2023-07-29T00:58:44;11.15;;;7.45;;
35188;SDS011;21762;54.480;18.556;2023-07-29T01:01:14;15.07;;;9.27;;
35188;SDS011;21762;54.480;18.556;2023-07-29T01:03:52;12.38;;;8.52;;
35188;SDS011;21762;54.480;18.556;2023-07-29T01:06:27;12.93;;;9.15;;
35188;SDS011;21762;54.480;18.556;2023-07-29T01:09:09;14.88;;;9.68;;
35188;SDS011;21762;54.480;18.556;2023-07-29T01:11:48;14.35;;;9.85;;
35188;SDS011;21762;54.480;18.556;2023-07-29T01:14:28;14.57;;;9.68;;
35188;SDS011;21762;54.480;18.556;2023-07-29T01:17:05;16.70;;;10.27;;
35188;SDS011;21762;54.480;18.556;2023-07-29T01:19:48;20.48;;;10.32;;
35188;SDS011;21762;54.480;18.556;2023-07-29T01:22:35;19.60;;;10.90;;
35188;SDS011;21762;54.480;18.556;2023-07-29T01:25:08;17.77;;;10.50;;
35188;SDS011;21762;54.480;18.556;2023-07-29T01:27:41;16.52;;;12.07;;
35188;SDS011;21762;54.480;18.556;2023-07-29T01:30:11;17.30;;;11.40;;
35188;SDS011;21762;54.480;18.556;2023-07-29T01:32:51;17.83;;;11.07;;
35188;SDS011;21762;54.480;18.556;2023-07-29T01:35:23;14.98;;;11.75;;
35188;SDS011;21762;54.480;18.556;2023-07-29T01:38:04;16.77;;;11.43;;
35188;SDS011;21762;54.480;18.556;2023-07-29T01:40:46;15.57;;;10.50;;
35188;SDS011;21762;54.480;18.556;2023-07-29T01:43:18;15.57;;;11.02;;
35188;SDS011;21762;54.480;18.556;2023-07-29T01:45:54;15.65;;;10.23;;
35188;SDS011;21762;54.480;18.556;2023-07-29T01:48:23;15.15;;;10.93;;
35188;SDS011;21762;54.480;18.556;2023-07-29T01:50:57;19.30;;;11.48;;
35188;SDS011;21762;54.480;18.556;2023-07-29T01:53:28;15.70;;;11.43;;
35188;SDS011;21762;54.480;18.556;2023-07-29T01:56:01;15.10;;;10.82;;
35188;SDS011;21762;54.480;18.556;2023-07-29T01:58:32;22.15;;;11.60;;
35188;SDS011;21762;54.480;18.556;2023-07-29T02:03:33;13.38;;;10.00;;
35188;SDS011;21762;54.480;18.556;2023-07-29T02:06:02;16.85;;;10.45;;
35188;SDS011;21762;54.480;18.556;2023-07-29T02:08:31;13.25;;;10.02;;
35188;SDS011;21762;54.480;18.556;2023-07-29T02:14:59;16.33;;;11.77;;
35188;SDS011;21762;54.480;18.556;2023-07-29T02:17:31;12.55;;;9.65;;
35188;SDS011;21762;54.480;18.556;2023-07-29T02:20:02;16.80;;;11.13;;
35188;SDS011;21762;54.480;18.556;2023-07-29T02:22:32;14.48;;;10.30;;
35188;SDS011;21762;54.480;18.556;2023-07-29T02:25:03;15.38;;;10.57;;
35188;SDS011;21762;54.480;18.556;2023-07-29T02:27:33;14.15;;;10.95;;
35188;SDS011;21762;54.480;18.556;2023-07-29T02:30:04;18.10;;;11.18;;
35188;SDS011;21762;54.480;18.556;2023-07-29T02:32:39;14.95;;;10.70;;
35188;SDS011;21762;54.480;18.556;2023-07-29T02:35:11;18.42;;;10.80;;
35188;SDS011;21762;54.480;18.556;2023-07-29T02:37:42;14.37;;;10.03;;
35188;SDS011;21762;54.480;18.556;2023-07-29T02:40:13;17.60;;;10.88;;
35188;SDS011;21762;54.480;18.556;2023-07-29T02:42:42;16.10;;;11.32;;
35188;SDS011;21762;54.480;18.556;2023-07-29T02:45:16;15.25;;;10.93;;
35188;SDS011;21762;54.480;18.556;2023-07-29T02:47:47;16.55;;;11.48;;
35188;SDS011;21762;54.480;18.556;2023-07-29T02:50:19;14.68;;;11.38;;
35188;SDS011;21762;54.480;18.556;2023-07-29T02:52:50;14.80;;;10.20;;
35188;SDS011;21762;54.480;18.556;2023-07-29T02:55:27;14.75;;;10.93;;
35188;SDS011;21762;54.480;18.556;2023-07-29T02:58:28;13.00;;;10.20;;
35188;SDS011;21762;54.480;18.556;2023-07-29T03:01:26;17.58;;;10.63;;
35188;SDS011;21762;54.480;18.556;2023-07-29T03:04:29;16.02;;;10.38;;
35188;SDS011;21762;54.480;18.556;2023-07-29T03:06:59;13.55;;;10.25;;
35188;SDS011;21762;54.480;18.556;2023-07-29T03:09:30;15.25;;;10.65;;
35188;SDS011;21762;54.480;18.556;2023-07-29T03:12:01;17.60;;;11.57;;
35188;SDS011;21762;54.480;18.556;2023-07-29T03:14:31;15.68;;;11.35;;
35188;SDS011;21762;54.480;18.556;2023-07-29T03:17:04;16.15;;;10.90;;
35188;SDS011;21762;54.480;18.556;2023-07-29T03:19:33;16.15;;;11.07;;
35188;SDS011;21762;54.480;18.556;2023-07-29T03:22:04;16.35;;;10.98;;
35188;SDS011;21762;54.480;18.556;2023-07-29T03:24:32;13.57;;;9.65;;
35188;SDS011;21762;54.480;18.556;2023-07-29T03:27:02;16.60;;;11.52;;
35188;SDS011;21762;54.480;18.556;2023-07-29T03:29:32;15.82;;;10.18;;
35188;SDS011;21762;54.480;18.556;2023-07-29T03:32:04;17.70;;;11.38;;
35188;SDS011;21762;54.480;18.556;2023-07-29T03:34:35;14.98;;;10.88;;
35188;SDS011;21762;54.480;18.556;2023-07-29T03:37:06;16.65;;;9.90;;
35188;SDS011;21762;54.480;18.556;2023-07-29T03:39:38;11.88;;;9.30;;
35188;SDS011;21762;54.480;18.556;2023-07-29T03:42:08;12.80;;;8.90;;
35188;SDS011;21762;54.480;18.556;2023-07-29T03:44:40;14.38;;;9.27;;
35188;SDS011;21762;54.480;18.556;2023-07-29T03:47:13;14.07;;;9.10;;
35188;SDS011;21762;54.480;18.556;2023-07-29T03:49:45;16.48;;;9.65;;
35188;SDS011;21762;54.480;18.556;2023-07-29T03:52:19;14.20;;;9.25;;
35188;SDS011;21762;54.480;18.556;2023-07-29T03:54:50;15.80;;;9.98;;
35188;SDS011;21762;54.480;18.556;2023-07-29T03:57:20;12.73;;;9.45;;
35188;SDS011;21762;54.480;18.556;2023-07-29T03:59:50;14.52;;;8.90;;
35188;SDS011;21762;54.480;18.556;2023-07-29T04:02:21;16.70;;;10.45;;
35188;SDS011;21762;54.480;18.556;2023-07-29T04:07:23;17.25;;;9.18;;
35188;SDS011;21762;54.480;18.556;2023-07-29T04:09:52;11.77;;;8.70;;
35188;SDS011;21762;54.480;18.556;2023-07-29T04:12:23;11.90;;;8.93;;
35188;SDS011;21762;54.480;18.556;2023-07-29T04:14:54;11.25;;;8.55;;
35188;SDS011;21762;54.480;18.556;2023-07-29T04:17:25;11.55;;;7.95;;
35188;SDS011;21762;54.480;18.556;2023-07-29T04:19:58;10.35;;;7.65;;
35188;SDS011;21762;54.480;18.556;2023-07-29T04:22:37;13.30;;;8.88;;
35188;SDS011;21762;54.480;18.556;2023-07-29T04:25:07;13.85;;;9.15;;
35188;SDS011;21762;54.480;18.556;2023-07-29T04:27:38;9.67;;;7.97;;
35188;SDS011;21762;54.480;18.556;2023-07-29T04:30:08;11.98;;;8.10;;
35188;SDS011;21762;54.480;18.556;2023-07-29T04:32:40;10.90;;;8.25;;
35188;SDS011;21762;54.480;18.556;2023-07-29T04:37:40;14.55;;;9.00;;
35188;SDS011;21762;54.480;18.556;2023-07-29T04:40:10;13.80;;;9.13;;
35188;SDS011;21762;54.480;18.556;2023-07-29T04:42:40;12.55;;;8.57;;
35188;SDS011;21762;54.480;18.556;2023-07-29T04:45:09;11.52;;;8.52;;
35188;SDS011;21762;54.480;18.556;2023-07-29T04:47:42;12.00;;;7.78;;
35188;SDS011;21762;54.480;18.556;2023-07-29T04:50:11;10.85;;;7.90;;
35188;SDS011;21762;54.480;18.556;2023-07-29T04:52:40;10.55;;;6.93;;
35188;SDS011;21762;54.480;18.556;2023-07-29T04:55:09;10.43;;;7.75;;
35188;SDS011;21762;54.480;18.556;2023-07-29T04:57:39;11.63;;;7.10;;
35188;SDS011;21762;54.480;18.556;2023-07-29T05:00:11;12.02;;;7.47;;
35188;SDS011;21762;54.480;18.556;2023-07-29T05:02:42;10.93;;;7.18;;
35188;SDS011;21762;54.480;18.556;2023-07-29T05:05:14;9.07;;;6.63;;
35188;SDS011;21762;54.480;18.556;2023-07-29T05:07:43;11.10;;;7.78;;
35188;SDS011;21762;54.480;18.556;2023-07-29T05:10:28;10.73;;;7.50;;
35188;SDS011;21762;54.480;18.556;2023-07-29T05:13:24;8.93;;;6.63;;
35188;SDS011;21762;54.480;18.556;2023-07-29T05:15:56;9.65;;;6.47;;
35188;SDS011;21762;54.480;18.556;2023-07-29T05:18:28;8.10;;;6.18;;
35188;SDS011;21762;54.480;18.556;2023-07-29T05:21:00;6.32;;;5.65;;
35188;SDS011;21762;54.480;18.556;2023-07-29T05:23:46;7.65;;;5.57;;
35188;SDS011;21762;54.480;18.556;2023-07-29T05:26:16;7.78;;;5.47;;
35188;SDS011;21762;54.480;18.556;2023-07-29T05:28:46;7.93;;;5.57;;
35188;SDS011;21762;54.480;18.556;2023-07-29T05:31:21;8.18;;;5.43;;
35188;SDS011;21762;54.480;18.556;2023-07-29T05:33:52;8.77;;;5.47;;
35188;SDS011;21762;54.480;18.556;2023-07-29T05:36:24;7.22;;;4.82;;
35188;SDS011;21762;54.480;18.556;2023-07-29T05:38:54;7.13;;;4.65;;
35188;SDS011;21762;54.480;18.556;2023-07-29T05:41:24;8.75;;;5.32;;
35188;SDS011;21762;54.480;18.556;2023-07-29T05:43:58;4.93;;;4.07;;
35188;SDS011;21762;54.480;18.556;2023-07-29T05:46:28;5.00;;;4.25;;
35188;SDS011;21762;54.480;18.556;2023-07-29T05:48:59;4.45;;;3.90;;
35188;SDS011;21762;54.480;18.556;2023-07-29T05:51:29;6.22;;;3.88;;
35188;SDS011;21762;54.480;18.556;2023-07-29T05:53:59;4.28;;;3.20;;
35188;SDS011;21762;54.480;18.556;2023-07-29T05:56:30;4.25;;;3.40;;
35188;SDS011;21762;54.480;18.556;2023-07-29T05:59:00;4.68;;;3.15;;
35188;SDS011;21762;54.480;18.556;2023-07-29T06:01:29;9.38;;;4.50;;
35188;SDS011;21762;54.480;18.556;2023-07-29T06:04:00;5.90;;;2.83;;
35188;SDS011;21762;54.480;18.556;2023-07-29T06:06:31;4.28;;;3.30;;
35188;SDS011;21762;54.480;18.556;2023-07-29T06:09:01;4.28;;;3.08;;
35188;SDS011;21762;54.480;18.556;2023-07-29T06:11:32;5.05;;;2.60;;
35188;SDS011;21762;54.480;18.556;2023-07-29T06:14:02;5.13;;;2.75;;
35188;SDS011;21762;54.480;18.556;2023-07-29T06:16:32;3.88;;;2.78;;
35188;SDS011;21762;54.480;18.556;2023-07-29T06:19:03;4.25;;;2.88;;
35188;SDS011;21762;54.480;18.556;2023-07-29T06:21:34;3.30;;;2.35;;
35188;SDS011;21762;54.480;18.556;2023-07-29T06:24:04;5.07;;;2.15;;
35188;SDS011;21762;54.480;18.556;2023-07-29T06:26:34;3.70;;;2.65;;
35188;SDS011;21762;54.480;18.556;2023-07-29T06:29:05;4.72;;;2.20;;
35188;SDS011;21762;54.480;18.556;2023-07-29T06:31:34;4.82;;;2.50;;
35188;SDS011;21762;54.480;18.556;2023-07-29T06:34:05;3.05;;;2.30;;
35188;SDS011;21762;54.480;18.556;2023-07-29T06:36:36;4.07;;;2.55;;
35188;SDS011;21762;54.480;18.556;2023-07-29T06:39:21;6.15;;;1.95;;
35188;SDS011;21762;54.480;18.556;2023-07-29T06:41:52;3.85;;;2.20;;
35188;SDS011;21762;54.480;18.556;2023-07-29T06:44:22;6.50;;;1.80;;
35188;SDS011;21762;54.480;18.556;2023-07-29T06:46:53;3.05;;;2.40;;
35188;SDS011;21762;54.480;18.556;2023-07-29T06:49:25;2.95;;;1.90;;
35188;SDS011;21762;54.480;18.556;2023-07-29T06:51:56;2.50;;;2.05;;
35188;SDS011;21762;54.480;18.556;2023-07-29T06:54:25;2.35;;;1.77;;
35188;SDS011;21762;54.480;18.556;2023-07-29T06:56:54;4.13;;;2.10;;
35188;SDS011;21762;54.480;18.556;2023-07-29T06:59:25;4.35;;;2.50;;
35188;SDS011;21762;54.480;18.556;2023-07-29T07:01:55;3.47;;;1.77;;
35188;SDS011;21762;54.480;18.556;2023-07-29T07:04:26;3.88;;;2.05;;
35188;SDS011;21762;54.480;18.556;2023-07-29T07:06:56;5.40;;;1.80;;
35188;SDS011;21762;54.480;18.556;2023-07-29T07:09:26;2.58;;;1.60;;
35188;SDS011;21762;54.480;18.556;2023-07-29T07:11:56;4.57;;;2.00;;
35188;SDS011;21762;54.480;18.556;2023-07-29T07:14:27;2.55;;;1.70;;
35188;SDS011;21762;54.480;18.556;2023-07-29T07:16:57;4.85;;;1.90;;
35188;SDS011;21762;54.480;18.556;2023-07-29T07:29:33;2.63;;;1.40;;
35188;SDS011;21762;54.480;18.556;2023-07-29T07:32:02;2.83;;;1.97;;
35188;SDS011;21762;54.480;18.556;2023-07-29T07:34:33;3.03;;;1.50;;
35188;SDS011;21762;54.480;18.556;2023-07-29T07:37:05;3.08;;;1.52;;
35188;SDS011;21762;54.480;18.556;2023-07-29T07:39:37;2.78;;;1.65;;
35188;SDS011;21762;54.480;18.556;2023-07-29T07:42:09;5.27;;;1.97;;
35188;SDS011;21762;54.480;18.556;2023-07-29T07:44:40;3.22;;;2.03;;
35188;SDS011;21762;54.480;18.556;2023-07-29T07:47:11;5.80;;;2.23;;
35188;SDS011;21762;54.480;18.556;2023-07-29T07:49:42;3.67;;;1.83;;
35188;SDS011;21762;54.480;18.556;2023-07-29T07:54:42;2.78;;;1.63;;
35188;SDS011;21762;54.480;18.556;2023-07-29T07:57:12;4.00;;;1.85;;
35188;SDS011;21762;54.480;18.556;2023-07-29T07:59:43;6.97;;;2.00;;
35188;SDS011;21762;54.480;18.556;2023-07-29T08:02:13;7.38;;;2.33;;
35188;SDS011;21762;54.480;18.556;2023-07-29T08:04:43;4.18;;;1.90;;
35188;SDS011;21762;54.480;18.556;2023-07-29T08:07:13;4.22;;;1.80;;
35188;SDS011;21762;54.480;18.556;2023-07-29T10:46:19;1.67;;;1.40;;
35188;SDS011;21762;54.480;18.556;2023-07-29T10:48:52;1.40;;;1.13;;
35188;SDS011;21762;54.480;18.556;2023-07-29T10:51:22;2.03;;;1.40;;
35188;SDS011;21762;54.480;18.556;2023-07-29T10:53:57;1.67;;;1.30;;
35188;SDS011;21762;54.480;18.556;2023-07-29T10:56:27;2.22;;;1.50;;
35188;SDS011;21762;54.480;18.556;2023-07-29T10:58:57;3.20;;;1.15;;
35188;SDS011;21762;54.480;18.556;2023-07-29T11:01:29;4.75;;;1.42;;
35188;SDS011;21762;54.480;18.556;2023-07-29T11:09:57;2.25;;;1.52;;
35188;SDS011;21762;54.480;18.556;2023-07-29T11:12:33;1.60;;;1.10;;
35188;SDS011;21762;54.480;18.556;2023-07-29T11:15:14;1.38;;;0.95;;
35188;SDS011;21762;54.480;18.556;2023-07-29T11:17:46;1.80;;;1.40;;
35188;SDS011;21762;54.480;18.556;2023-07-29T11:20:17;2.05;;;1.60;;
35188;SDS011;21762;54.480;18.556;2023-07-29T11:22:46;1.42;;;1.23;;
35188;SDS011;21762;54.480;18.556;2023-07-29T11:25:16;2.03;;;1.45;;
35188;SDS011;21762;54.480;18.556;2023-07-29T11:27:46;2.92;;;1.02;;
35188;SDS011;21762;54.480;18.556;2023-07-29T11:30:15;1.70;;;1.60;;
35188;SDS011;21762;54.480;18.556;2023-07-29T11:32:57;2.90;;;1.75;;
35188;SDS011;21762;54.480;18.556;2023-07-29T11:35:26;1.88;;;1.42;;
35188;SDS011;21762;54.480;18.556;2023-07-29T11:37:55;1.48;;;1.25;;
35188;SDS011;21762;54.480;18.556;2023-07-29T11:40:24;4.35;;;1.73;;
35188;SDS011;21762;54.480;18.556;2023-07-29T11:42:53;3.22;;;1.55;;
35188;SDS011;21762;54.480;18.556;2023-07-29T11:45:22;1.83;;;1.23;;
35188;SDS011;21762;54.480;18.556;2023-07-29T11:47:54;2.35;;;1.52;;
35188;SDS011;21762;54.480;18.556;2023-07-29T11:50:23;5.38;;;1.40;;
35188;SDS011;21762;54.480;18.556;2023-07-29T11:52:52;2.40;;;1.50;;
35188;SDS011;21762;54.480;18.556;2023-07-29T11:55:21;1.65;;;1.20;;
35188;SDS011;21762;54.480;18.556;2023-07-29T11:57:51;2.25;;;1.38;;
35188;SDS011;21762;54.480;18.556;2023-07-29T12:00:20;2.42;;;1.65;;
35188;SDS011;21762;54.480;18.556;2023-07-29T12:02:49;2.35;;;1.60;;
35188;SDS011;21762;54.480;18.556;2023-07-29T12:05:20;2.60;;;1.35;;
35188;SDS011;21762;54.480;18.556;2023-07-29T12:07:50;3.10;;;1.25;;
35188;SDS011;21762;54.480;18.556;2023-07-29T12:10:19;1.45;;;1.30;;
35188;SDS011;21762;54.480;18.556;2023-07-29T12:12:49;1.75;;;1.33;;
35188;SDS011;21762;54.480;18.556;2023-07-29T12:15:25;1.60;;;1.15;;
35188;SDS011;21762;54.480;18.556;2023-07-29T12:17:54;2.53;;;1.33;;
35188;SDS011;21762;54.480;18.556;2023-07-29T12:20:26;5.43;;;1.98;;
35188;SDS011;21762;54.480;18.556;2023-07-29T12:22:56;4.53;;;1.80;;
35188;SDS011;21762;54.480;18.556;2023-07-29T12:25:25;1.67;;;1.35;;
35188;SDS011;21762;54.480;18.556;2023-07-29T12:27:55;2.72;;;1.45;;
35188;SDS011;21762;54.480;18.556;2023-07-29T12:30:24;2.38;;;1.58;;
35188;SDS011;21762;54.480;18.556;2023-07-29T12:32:53;3.78;;;2.70;;
35188;SDS011;21762;54.480;18.556;2023-07-29T12:35:22;3.63;;;1.70;;
35188;SDS011;21762;54.480;18.556;2023-07-29T12:38:01;2.75;;;1.50;;
35188;SDS011;21762;54.480;18.556;2023-07-29T12:40:30;3.70;;;1.50;;
35188;SDS011;21762;54.480;18.556;2023-07-29T12:42:59;3.53;;;1.50;;
35188;SDS011;21762;54.480;18.556;2023-07-29T12:45:28;2.05;;;1.48;;
35188;SDS011;21762;54.480;18.556;2023-07-29T12:48:06;2.10;;;1.55;;
35188;SDS011;21762;54.480;18.556;2023-07-29T12:50:35;2.13;;;1.40;;
35188;SDS011;21762;54.480;18.556;2023-07-29T12:53:06;2.90;;;1.90;;
35188;SDS011;21762;54.480;18.556;2023-07-29T12:55:35;1.73;;;1.50;;
35188;SDS011;21762;54.480;18.556;2023-07-29T12:58:05;1.77;;;1.40;;
35188;SDS011;21762;54.480;18.556;2023-07-29T13:00:33;4.10;;;1.40;;
35188;SDS011;21762;54.480;18.556;2023-07-29T13:03:03;1.75;;;1.58;;
35188;SDS011;21762;54.480;18.556;2023-07-29T13:05:34;3.28;;;1.40;;
35188;SDS011;21762;54.480;18.556;2023-07-29T13:08:03;2.45;;;1.40;;
35188;SDS011;21762;54.480;18.556;2023-07-29T13:10:34;3.20;;;1.60;;
35188;SDS011;21762;54.480;18.556;2023-07-29T13:13:04;1.40;;;1.30;;
35188;SDS011;21762;54.480;18.556;2023-07-29T13:15:34;2.40;;;1.55;;
35188;SDS011;21762;54.480;18.556;2023-07-29T13:18:05;2.50;;;1.38;;
35188;SDS011;21762;54.480;18.556;2023-07-29T13:20:40;1.67;;;1.35;;
35188;SDS011;21762;54.480;18.556;2023-07-29T13:23:13;3.47;;;1.50;;
35188;SDS011;21762;54.480;18.556;2023-07-29T13:25:50;2.10;;;1.38;;
35188;SDS011;21762;54.480;18.556;2023-07-29T13:28:20;2.15;;;1.70;;
35188;SDS011;21762;54.480;18.556;2023-07-29T13:30:50;2.38;;;1.52;;
35188;SDS011;21762;54.480;18.556;2023-07-29T13:33:19;1.98;;;1.45;;
35188;SDS011;21762;54.480;18.556;2023-07-29T13:35:49;1.70;;;1.50;;
35188;SDS011;21762;54.480;18.556;2023-07-29T13:38:20;3.92;;;1.50;;
35188;SDS011;21762;54.480;18.556;2023-07-29T13:40:52;3.17;;;1.70;;
35188;SDS011;21762;54.480;18.556;2023-07-29T13:43:23;2.10;;;1.65;;
35188;SDS011;21762;54.480;18.556;2023-07-29T13:45:54;2.08;;;1.42;;
35188;SDS011;21762;54.480;18.556;2023-07-29T13:48:23;2.10;;;1.75;;
35188;SDS011;21762;54.480;18.556;2023-07-29T13:50:52;1.95;;;1.40;;
35188;SDS011;21762;54.480;18.556;2023-07-29T13:53:22;1.83;;;1.58;;
35188;SDS011;21762;54.480;18.556;2023-07-29T13:55:52;1.90;;;1.30;;
35188;SDS011;21762;54.480;18.556;2023-07-29T13:58:21;3.80;;;1.60;;
35188;SDS011;21762;54.480;18.556;2023-07-29T14:00:51;1.45;;;1.30;;
35188;SDS011;21762;54.480;18.556;2023-07-29T14:03:21;3.05;;;1.35;;
35188;SDS011;21762;54.480;18.556;2023-07-29T14:05:51;1.45;;;1.30;;
35188;SDS011;21762;54.480;18.556;2023-07-29T14:08:20;2.03;;;1.50;;
35188;SDS011;21762;54.480;18.556;2023-07-29T14:10:51;1.80;;;1.30;;
35188;SDS011;21762;54.480;18.556;2023-07-29T14:13:22;2.45;;;1.80;;
35188;SDS011;21762;54.480;18.556;2023-07-29T14:15:51;1.42;;;1.30;;
35188;SDS011;21762;54.480;18.556;2023-07-29T14:18:21;2.40;;;1.10;;
35188;SDS011;21762;54.480;18.556;2023-07-29T14:20:53;2.00;;;1.30;;
35188;SDS011;21762;54.480;18.556;2023-07-29T14:23:24;2.28;;;1.30;;
35188;SDS011;21762;54.480;18.556;2023-07-29T14:26:19;1.83;;;1.10;;
35188;SDS011;21762;54.480;18.556;2023-07-29T14:28:54;2.45;;;1.35;;
35188;SDS011;21762;54.480;18.556;2023-07-29T14:31:23;1.80;;;1.25;;
35188;SDS011;21762;54.480;18.556;2023-07-29T14:33:53;1.58;;;1.30;;
35188;SDS011;21762;54.480;18.556;2023-07-29T14:36:24;1.92;;;0.98;;
35188;SDS011;21762;54.480;18.556;2023-07-29T14:41:25;1.77;;;1.10;;
35188;SDS011;21762;54.480;18.556;2023-07-29T14:43:54;2.00;;;1.35;;
35188;SDS011;21762;54.480;18.556;2023-07-29T14:46:22;1.88;;;1.20;;
35188;SDS011;21762;54.480;18.556;2023-07-29T14:48:51;2.10;;;1.38;;
35188;SDS011;21762;54.480;18.556;2023-07-29T14:51:21;2.47;;;1.70;;
35188;SDS011;21762;54.480;18.556;2023-07-29T14:53:54;4.28;;;2.20;;
35188;SDS011;21762;54.480;18.556;2023-07-29T14:56:35;3.95;;;1.90;;
35188;SDS011;21762;54.480;18.556;2023-07-29T14:59:04;3.22;;;2.13;;
35188;SDS011;21762;54.480;18.556;2023-07-29T15:01:33;2.97;;;1.90;;
35188;SDS011;21762;54.480;18.556;2023-07-29T15:04:02;3.25;;;2.00;;
35188;SDS011;21762;54.480;18.556;2023-07-29T15:06:31;4.00;;;1.70;;
35188;SDS011;21762;54.480;18.556;2023-07-29T15:08:59;1.88;;;1.65;;
35188;SDS011;21762;54.480;18.556;2023-07-29T15:11:28;5.13;;;2.00;;
35188;SDS011;21762;54.480;18.556;2023-07-29T15:14:01;3.53;;;2.08;;
35188;SDS011;21762;54.480;18.556;2023-07-29T15:16:31;2.33;;;1.83;;
35188;SDS011;21762;54.480;18.556;2023-07-29T15:19:01;7.75;;;3.40;;
35188;SDS011;21762;54.480;18.556;2023-07-29T15:21:31;2.55;;;1.88;;
35188;SDS011;21762;54.480;18.556;2023-07-29T15:24:00;3.72;;;2.10;;
35188;SDS011;21762;54.480;18.556;2023-07-29T15:26:29;3.25;;;2.15;;
35188;SDS011;21762;54.480;18.556;2023-07-29T15:28:58;2.42;;;2.00;;
35188;SDS011;21762;54.480;18.556;2023-07-29T15:31:29;4.38;;;2.22;;
35188;SDS011;21762;54.480;18.556;2023-07-29T15:33:58;2.00;;;1.73;;
35188;SDS011;21762;54.480;18.556;2023-07-29T15:36:27;4.43;;;2.13;;
35188;SDS011;21762;54.480;18.556;2023-07-29T15:38:56;4.97;;;2.38;;
35188;SDS011;21762;54.480;18.556;2023-07-29T15:41:25;2.33;;;1.88;;
35188;SDS011;21762;54.480;18.556;2023-07-29T15:43:54;2.13;;;1.92;;
35188;SDS011;21762;54.480;18.556;2023-07-29T15:46:23;4.47;;;2.17;;
35188;SDS011;21762;54.480;18.556;2023-07-29T15:48:54;2.65;;;2.20;;
35188;SDS011;21762;54.480;18.556;2023-07-29T15:51:26;4.07;;;2.28;;
35188;SDS011;21762;54.480;18.556;2023-07-29T15:53:55;4.35;;;2.53;;
35188;SDS011;21762;54.480;18.556;2023-07-29T15:56:26;3.00;;;2.08;;
35188;SDS011;21762;54.480;18.556;2023-07-29T15:58:56;4.13;;;2.40;;
35188;SDS011;21762;54.480;18.556;2023-07-29T16:01:25;3.58;;;2.28;;
35188;SDS011;21762;54.480;18.556;2023-07-29T16:03:55;3.72;;;2.45;;
35188;SDS011;21762;54.480;18.556;2023-07-29T16:06:24;2.90;;;2.35;;
35188;SDS011;21762;54.480;18.556;2023-07-29T16:08:54;2.92;;;2.00;;
35188;SDS011;21762;54.480;18.556;2023-07-29T16:11:23;3.30;;;2.20;;
35188;SDS011;21762;54.480;18.556;2023-07-29T16:13:53;3.00;;;2.60;;
35188;SDS011;21762;54.480;18.556;2023-07-29T16:16:22;5.13;;;2.45;;
35188;SDS011;21762;54.480;18.556;2023-07-29T16:18:51;4.57;;;2.45;;
35188;SDS011;21762;54.480;18.556;2023-07-29T16:21:21;3.50;;;2.55;;
35188;SDS011;21762;54.480;18.556;2023-07-29T16:23:50;3.63;;;1.77;;
35188;SDS011;21762;54.480;18.556;2023-07-29T16:26:20;4.35;;;2.65;;
35188;SDS011;21762;54.480;18.556;2023-07-29T16:28:49;3.80;;;2.13;;
35188;SDS011;21762;54.480;18.556;2023-07-29T16:31:19;7.32;;;2.90;;
35188;SDS011;21762;54.480;18.556;2023-07-29T16:33:48;4.18;;;2.08;;
35188;SDS011;21762;54.480;18.556;2023-07-29T16:36:18;6.20;;;2.85;;
35188;SDS011;21762;54.480;18.556;2023-07-29T16:38:49;5.28;;;2.50;;
35188;SDS011;21762;54.480;18.556;2023-07-29T16:41:18;4.43;;;2.55;;
35188;SDS011;21762;54.480;18.556;2023-07-29T16:44:05;5.35;;;2.65;;
35188;SDS011;21762;54.480;18.556;2023-07-29T16:46:34;5.35;;;2.45;;
35188;SDS011;21762;54.480;18.556;2023-07-29T16:49:04;3.45;;;2.50;;
35188;SDS011;21762;54.480;18.556;2023-07-29T16:51:35;3.45;;;2.35;;
35188;SDS011;21762;54.480;18.556;2023-07-29T16:54:05;3.42;;;2.42;;
35188;SDS011;21762;54.480;18.556;2023-07-29T16:56:34;4.30;;;2.45;;
35188;SDS011;21762;54.480;18.556;2023-07-29T16:59:03;3.90;;;2.30;;
35188;SDS011;21762;54.480;18.556;2023-07-29T17:01:32;5.18;;;2.67;;
35188;SDS011;21762;54.480;18.556;2023-07-29T17:04:01;3.13;;;2.17;;
35188;SDS011;21762;54.480;18.556;2023-07-29T17:06:30;3.35;;;2.08;;
35188;SDS011;21762;54.480;18.556;2023-07-29T17:08:59;4.43;;;2.38;;
35188;SDS011;21762;54.480;18.556;2023-07-29T17:11:29;7.15;;;3.15;;
35188;SDS011;21762;54.480;18.556;2023-07-29T17:13:58;9.25;;;3.38;;
35188;SDS011;21762;54.480;18.556;2023-07-29T17:16:28;3.78;;;2.58;;
35188;SDS011;21762;54.480;18.556;2023-07-29T17:19:07;2.95;;;2.65;;
35188;SDS011;21762;54.480;18.556;2023-07-29T17:22:11;4.73;;;2.47;;
35188;SDS011;21762;54.480;18.556;2023-07-29T17:25:14;6.45;;;2.70;;
35188;SDS011;21762;54.480;18.556;2023-07-29T17:28:38;4.82;;;3.13;;
35188;SDS011;21762;54.480;18.556;2023-07-29T17:31:26;5.25;;;2.50;;
35188;SDS011;21762;54.480;18.556;2023-07-29T17:34:52;4.57;;;2.92;;
35188;SDS011;21762;54.480;18.556;2023-07-29T17:37:22;3.22;;;2.67;;
35188;SDS011;21762;54.480;18.556;2023-07-29T17:39:54;4.63;;;2.53;;
35188;SDS011;21762;54.480;18.556;2023-07-29T17:42:53;5.25;;;3.50;;
35188;SDS011;21762;54.480;18.556;2023-07-29T17:45:40;7.32;;;3.47;;
35188;SDS011;21762;54.480;18.556;2023-07-29T17:48:09;3.88;;;2.70;;
35188;SDS011;21762;54.480;18.556;2023-07-29T17:50:39;4.63;;;3.30;;
35188;SDS011;21762;54.480;18.556;2023-07-29T17:53:20;5.35;;;2.72;;
35188;SDS011;21762;54.480;18.556;2023-07-29T17:56:27;4.78;;;3.05;;
35188;SDS011;21762;54.480;18.556;2023-07-29T17:58:57;4.93;;;2.75;;
35188;SDS011;21762;54.480;18.556;2023-07-29T18:01:32;5.72;;;3.17;;
35188;SDS011;21762;54.480;18.556;2023-07-29T18:04:03;4.85;;;3.00;;
35188;SDS011;21762;54.480;18.556;2023-07-29T18:06:32;5.13;;;2.80;;
35188;SDS011;21762;54.480;18.556;2023-07-29T18:09:01;7.70;;;3.75;;